Terminal Aerodrome Forecast
Issued by NWS New Orleans/Baton Rouge, LA

Home | Current Version | Previous Version | Text Only | Print | Product List | Glossary On
Versions: 1 2 3 4 5 6 7 8 9 10 11 12 13 14
000
FTUS44 KLIX 291140
TAFBTR
TAF
KBTR 291140Z 2912/3012 VRB03KT P6SM FEW020 SCT110 BKN250
     FM291800 26005KT P6SM VCTS SCT035CB BKN150
     FM300000 18003KT P6SM BKN250=

USA.gov is the U.S. government's official web portal to all federal, state and local government web resources and services.